createdAt,value
2017-06-11T00:01:00.607Z,1003.55
2017-06-11T00:02:10.894Z,1003.57
2017-06-11T00:03:21.194Z,1003.59
2017-06-11T00:04:31.466Z,1003.57
2017-06-11T00:05:41.754Z,1003.6
2017-06-11T00:06:52.031Z,1003.57
2017-06-11T00:08:02.034Z,1003.55
2017-06-11T00:09:12.339Z,1003.56
2017-06-11T00:10:22.628Z,1003.55
2017-06-11T00:11:32.909Z,1003.57
2017-06-11T00:12:43.205Z,1003.57
2017-06-11T00:13:53.190Z,1003.58
2017-06-11T00:15:03.472Z,1003.59
2017-06-11T00:16:13.754Z,1003.58
2017-06-11T00:17:24.060Z,1003.61
2017-06-11T00:18:34.100Z,1003.57
2017-06-11T00:19:44.405Z,1003.57
2017-06-11T00:20:54.712Z,1003.59
2017-06-11T00:22:04.692Z,1003.61
2017-06-11T00:23:14.998Z,1003.58
2017-06-11T00:24:25.289Z,1003.56
2017-06-11T00:25:35.590Z,1003.57
2017-06-11T00:26:45.613Z,1003.57
2017-06-11T00:27:55.599Z,1003.55
2017-06-11T00:29:05.887Z,1003.54
2017-06-11T00:30:16.174Z,1003.54
2017-06-11T00:31:26.463Z,1003.55
2017-06-11T00:32:36.737Z,1003.56
2017-06-11T00:33:47.023Z,1003.55
2017-06-11T00:34:57.008Z,1003.56
2017-06-11T00:36:07.285Z,1003.53
2017-06-11T00:37:17.290Z,1003.54
2017-06-11T00:38:27.263Z,1003.54
2017-06-11T00:39:37.545Z,1003.58
2017-06-11T00:40:47.832Z,1003.53
2017-06-11T00:41:58.132Z,1003.56
2017-06-11T00:43:08.413Z,1003.55
2017-06-11T00:44:18.693Z,1003.55
2017-06-11T00:45:28.931Z,1003.53
2017-06-11T00:46:39.219Z,1003.53
2017-06-11T00:47:49.575Z,1003.57
2017-06-11T00:48:59.538Z,1003.57
2017-06-11T00:50:09.512Z,1003.55
2017-06-11T00:51:19.498Z,1003.5
2017-06-11T00:52:29.775Z,1003.51
2017-06-11T00:53:40.064Z,1003.53
2017-06-11T00:54:50.363Z,1003.51
2017-06-11T00:56:00.640Z,1003.56
2017-06-11T00:57:10.920Z,1003.59
2017-06-11T00:58:20.912Z,1003.54
2017-06-11T00:59:31.245Z,1003.61
2017-06-11T01:00:41.524Z,1003.57
2017-06-11T01:01:51.195Z,1003.57
2017-06-11T01:03:01.168Z,1003.57
2017-06-11T01:04:11.458Z,1003.57
2017-06-11T01:05:21.806Z,1003.58
2017-06-11T01:06:31.779Z,1003.53
2017-06-11T01:07:42.057Z,1003.53
2017-06-11T01:08:52.134Z,1003.49
2017-06-11T01:10:02.434Z,1003.5
2017-06-11T01:11:12.714Z,1003.48
2017-06-11T01:12:22.998Z,1003.49
2017-06-11T01:13:33.279Z,1003.5
2017-06-11T01:14:43.264Z,1003.47
2017-06-11T01:15:53.561Z,1003.49
2017-06-11T01:17:03.887Z,1003.46
2017-06-11T01:18:13.871Z,1003.45
2017-06-11T01:19:23.846Z,1003.47
2017-06-11T01:20:33.879Z,1003.44
2017-06-11T01:21:43.845Z,1003.47
2017-06-11T01:22:54.146Z,1003.47
2017-06-11T01:24:04.438Z,1003.49
2017-06-11T01:25:14.737Z,1003.45
2017-06-11T01:26:24.403Z,1003.47
2017-06-11T01:27:34.690Z,1003.47
2017-06-11T01:28:44.976Z,1003.46
2017-06-11T01:29:55.266Z,1003.48
2017-06-11T01:31:05.555Z,1003.43
2017-06-11T01:32:15.826Z,1003.46
2017-06-11T01:33:26.133Z,1003.51
2017-06-11T01:34:36.111Z,1003.52
2017-06-11T01:35:46.401Z,1003.55
2017-06-11T01:36:56.396Z,1003.56
2017-06-11T01:38:06.685Z,1003.57
2017-06-11T01:39:16.660Z,1003.57
2017-06-11T01:40:27.013Z,1003.58
2017-06-11T01:41:37.300Z,1003.56
2017-06-11T01:42:47.277Z,1003.61
2017-06-11T01:43:57.250Z,1003.63
2017-06-11T01:45:07.538Z,1003.66
2017-06-11T01:46:17.820Z,1003.64
2017-06-11T01:47:27.794Z,1003.66
2017-06-11T01:48:38.080Z,1003.65
2017-06-11T01:49:48.360Z,1003.65
2017-06-11T01:50:58.634Z,1003.64
2017-06-11T01:52:08.918Z,1003.63
2017-06-11T01:53:19.205Z,1003.65
2017-06-11T01:54:29.501Z,1003.62
2017-06-11T01:55:39.194Z,1003.59
2017-06-11T01:56:49.479Z,1003.58
2017-06-11T01:57:59.565Z,1003.63
2017-06-11T01:59:09.844Z,1003.63
2017-06-11T02:00:20.130Z,1003.67
2017-06-11T02:01:30.110Z,1003.68
2017-06-11T02:02:40.406Z,1003.67
2017-06-11T02:03:50.739Z,1003.68
2017-06-11T02:05:00.712Z,1003.69
2017-06-11T02:06:11.002Z,1003.66
2017-06-11T02:07:21.291Z,1003.65
2017-06-11T02:08:31.570Z,1003.63
2017-06-11T02:09:41.853Z,1003.66
2017-06-11T02:10:52.146Z,1003.66
2017-06-11T02:12:02.440Z,1003.7
2017-06-11T02:13:12.759Z,1003.74
2017-06-11T02:14:23.045Z,1003.75
2017-06-11T02:15:32.725Z,1003.77
2017-06-11T02:16:43.004Z,1003.69
2017-06-11T02:17:53.284Z,1003.75
2017-06-11T02:19:03.567Z,1003.73
2017-06-11T02:20:13.866Z,1003.78
2017-06-11T02:21:24.158Z,1003.78
2017-06-11T02:22:34.436Z,1003.79
2017-06-11T02:23:44.414Z,1003.79
2017-06-11T02:24:54.691Z,1003.8
2017-06-11T02:26:04.990Z,1003.82
2017-06-11T02:27:15.355Z,1003.8
2017-06-11T02:28:25.640Z,1003.8
2017-06-11T02:29:35.928Z,1003.78
2017-06-11T02:30:45.898Z,1003.75
2017-06-11T02:31:55.572Z,1003.76
2017-06-11T02:33:05.613Z,1003.79
2017-06-11T02:34:15.580Z,1003.77
2017-06-11T02:35:25.856Z,1003.79
2017-06-11T02:36:35.523Z,1003.78
2017-06-11T02:37:45.815Z,1003.81
2017-06-11T02:38:55.792Z,1003.71
2017-06-11T02:40:05.768Z,1003.76
2017-06-11T02:41:16.051Z,1003.78
2017-06-11T02:42:26.342Z,1003.78
2017-06-11T02:43:36.637Z,1003.8
2017-06-11T02:44:46.921Z,1003.8
2017-06-11T02:45:57.242Z,1003.78
2017-06-11T02:47:07.282Z,1003.79
2017-06-11T02:48:17.625Z,1003.78
2017-06-11T02:49:27.678Z,1003.8
2017-06-11T02:50:37.751Z,1003.78
2017-06-11T02:51:48.102Z,1003.77
2017-06-11T02:52:57.818Z,1003.77
2017-06-11T02:54:08.160Z,1003.82
2017-06-11T02:55:18.506Z,1003.81
2017-06-11T02:56:28.896Z,1003.82
2017-06-11T02:57:38.924Z,1003.86
2017-06-11T02:58:48.966Z,1003.86
2017-06-11T02:59:59.318Z,1003.89
2017-06-11T03:01:09.670Z,1003.89
2017-06-11T03:32:49.549Z,1003.87
2017-06-11T03:33:59.881Z,1003.9
2017-06-11T03:35:10.221Z,1003.97
2017-06-11T03:36:20.557Z,1003.93
2017-06-11T03:37:30.896Z,1004.01
2017-06-11T03:38:41.241Z,1004
2017-06-11T03:39:51.589Z,1004.02
2017-06-11T03:41:01.990Z,1004.09
2017-06-11T03:42:12.356Z,1004.06
2017-06-11T03:43:22.703Z,1004.07
2017-06-11T03:44:33.087Z,1004.1
2017-06-11T03:45:43.457Z,1004.05
2017-06-11T03:46:53.492Z,1004.1
2017-06-11T03:48:03.831Z,1004.09
2017-06-11T03:49:13.548Z,1004.11
2017-06-11T03:50:23.636Z,1004.15
2017-06-11T03:51:33.978Z,1004.19
2017-06-11T03:52:44.328Z,1004.18
2017-06-11T03:53:54.697Z,1004.22
2017-06-11T03:55:04.757Z,1004.21
2017-06-11T03:56:15.165Z,1004.21
2017-06-11T03:57:25.502Z,1004.22
2017-06-11T03:58:35.861Z,1004.2
2017-06-11T03:59:45.881Z,1004.22
2017-06-11T04:00:55.906Z,1004.18
2017-06-11T04:02:05.992Z,1004.21
2017-06-11T04:03:16.018Z,1004.24
2017-06-11T04:04:26.382Z,1004.22
2017-06-11T04:05:36.738Z,1004.25
2017-06-11T04:06:47.085Z,1004.22
2017-06-11T04:07:57.434Z,1004.23
2017-06-11T04:09:07.786Z,1004.25
2017-06-11T04:10:18.128Z,1004.27
2017-06-11T04:11:28.469Z,1004.26
2017-06-11T04:12:38.819Z,1004.3
2017-06-11T04:13:48.847Z,1004.27
2017-06-11T04:14:59.211Z,1004.27
2017-06-11T04:16:09.566Z,1004.27
2017-06-11T04:17:19.920Z,1004.37
2017-06-11T04:18:29.969Z,1004.74
2017-06-11T04:19:40.361Z,1004.98
2017-06-11T04:20:50.772Z,1005.08
2017-06-11T04:22:01.130Z,1005.13
2017-06-11T04:23:11.169Z,1005.21
2017-06-11T04:24:21.525Z,1005.04
2017-06-11T04:25:31.924Z,1005.03
2017-06-11T04:26:42.309Z,1005.3
2017-06-11T04:27:52.707Z,1005.42
2017-06-11T04:29:03.059Z,1005.22
2017-06-11T04:30:13.421Z,1005.03
2017-06-11T04:31:23.517Z,1005.01
2017-06-11T04:32:33.557Z,1005.13
2017-06-11T04:33:43.604Z,1005.12
2017-06-11T04:34:53.972Z,1005.05
2017-06-11T04:36:04.309Z,1004.96
2017-06-11T04:37:14.732Z,1004.93
2017-06-11T04:38:25.072Z,1004.72
2017-06-11T04:39:35.104Z,1004.73
2017-06-11T04:40:44.840Z,1004.73
2017-06-11T04:41:55.197Z,1004.68
2017-06-11T04:43:05.245Z,1004.6
2017-06-11T04:44:15.591Z,1004.59
2017-06-11T04:45:25.641Z,1004.59
2017-06-11T04:46:35.687Z,1004.57
2017-06-11T04:47:45.741Z,1004.6
2017-06-11T04:48:56.146Z,1004.62
2017-06-11T04:50:06.493Z,1004.64
2017-06-11T04:51:16.853Z,1004.65
2017-06-11T04:52:27.209Z,1004.69
2017-06-11T04:53:37.584Z,1004.73
2017-06-11T04:54:47.942Z,1004.81
2017-06-11T04:55:58.304Z,1004.79
2017-06-11T04:57:08.662Z,1004.79
2017-06-11T04:58:19.034Z,1004.79
2017-06-11T04:59:29.085Z,1004.89
2017-06-11T05:00:39.127Z,1004.95
2017-06-11T05:01:49.478Z,1004.97
2017-06-11T05:02:59.826Z,1005
2017-06-11T05:04:10.172Z,1005.03
2017-06-11T05:05:20.509Z,1005.05
2017-06-11T05:06:30.235Z,1005.15
2017-06-11T05:07:40.617Z,1005.12
2017-06-11T05:08:50.985Z,1004.97
2017-06-11T05:10:01.024Z,1004.88
2017-06-11T05:11:11.369Z,1004.83
2017-06-11T05:12:21.104Z,1004.79
2017-06-11T05:13:31.480Z,1004.8
2017-06-11T05:14:41.851Z,1004.75
2017-06-11T05:15:52.199Z,1004.74
2017-06-11T05:17:02.549Z,1004.76
2017-06-11T05:18:12.957Z,1004.74
2017-06-11T05:19:23.019Z,1004.78
2017-06-11T05:20:33.069Z,1004.79
2017-06-11T05:21:43.414Z,1004.79
2017-06-11T05:22:53.765Z,1004.8
2017-06-11T05:24:03.552Z,1004.74
2017-06-11T05:25:13.908Z,1004.78
2017-06-11T05:26:24.260Z,1004.79
2017-06-11T05:27:34.619Z,1004.83
2017-06-11T05:28:44.974Z,1004.77
2017-06-11T05:29:55.367Z,1004.79
2017-06-11T05:31:05.739Z,1004.79
2017-06-11T05:32:15.809Z,1004.79
2017-06-11T05:33:25.846Z,1004.84
2017-06-11T05:34:35.893Z,1004.83
2017-06-11T05:35:46.330Z,1004.86
2017-06-11T05:36:56.694Z,1004.85
2017-06-11T05:38:07.048Z,1004.85
2017-06-11T05:39:17.144Z,1004.89
2017-06-11T05:40:27.500Z,1004.87
2017-06-11T05:41:37.907Z,1004.89
2017-06-11T05:42:48.266Z,1004.84
2017-06-11T05:43:58.318Z,1004.85
2017-06-11T05:45:08.369Z,1004.85
2017-06-11T05:46:18.724Z,1004.84
2017-06-11T05:47:29.131Z,1004.89
2017-06-11T05:48:39.495Z,1004.88
2017-06-11T05:49:49.844Z,1004.88
2017-06-11T05:51:00.212Z,1004.85
2017-06-11T05:52:10.578Z,1004.88
2017-06-11T05:53:20.985Z,1004.87
2017-06-11T05:54:31.327Z,1004.89
2017-06-11T05:55:41.398Z,1004.89
2017-06-11T05:56:51.439Z,1004.91
2017-06-11T05:58:01.810Z,1004.85
2017-06-11T05:59:11.531Z,1004.86
2017-06-11T06:00:21.887Z,1004.91
2017-06-11T06:01:31.929Z,1004.92
2017-06-11T06:02:41.994Z,1004.87
2017-06-11T06:03:52.054Z,1004.88
2017-06-11T06:05:02.087Z,1004.86
2017-06-11T06:06:12.451Z,1004.86
2017-06-11T06:07:22.173Z,1004.89
2017-06-11T06:08:32.519Z,1004.87
2017-06-11T06:09:42.256Z,1004.85
2017-06-11T06:10:52.662Z,1004.83
2017-06-11T06:12:03.030Z,1004.84
2017-06-11T06:13:13.398Z,1004.93
2017-06-11T06:14:23.743Z,1005.22
2017-06-11T06:15:33.786Z,1005.47
2017-06-11T06:16:44.196Z,1005.4
2017-06-11T06:17:54.232Z,1005.22
2017-06-11T06:19:04.635Z,1005.12
2017-06-11T06:20:15.012Z,1005.07
2017-06-11T06:21:25.083Z,1005.05
2017-06-11T06:22:35.167Z,1005.14
2017-06-11T06:23:45.202Z,1005.15
2017-06-11T06:24:55.558Z,1005.08
2017-06-11T06:26:05.605Z,1005.13
2017-06-11T06:27:15.983Z,1005.12
2017-06-11T06:28:26.030Z,1005.04
2017-06-11T06:29:36.389Z,1005.01
2017-06-11T06:30:46.744Z,1005.02
2017-06-11T06:31:56.792Z,1005.04
2017-06-11T06:33:06.842Z,1004.93
2017-06-11T06:34:17.193Z,1004.87
2017-06-11T06:35:27.241Z,1004.88
2017-06-11T06:36:36.972Z,1004.9
2017-06-11T06:37:47.357Z,1004.85
2017-06-11T06:38:57.716Z,1004.8
2017-06-11T06:40:08.080Z,1004.82
2017-06-11T06:41:18.425Z,1004.77
2017-06-11T06:42:28.777Z,1004.74
2017-06-11T06:43:39.143Z,1004.73
2017-06-11T06:44:49.200Z,1004.72
2017-06-11T06:45:59.300Z,1004.69
2017-06-11T06:47:09.662Z,1004.72
2017-06-11T06:48:20.014Z,1004.69
2017-06-11T06:49:30.366Z,1004.68
2017-06-11T06:50:40.119Z,1004.68
2017-06-11T06:51:50.463Z,1004.66
2017-06-11T06:53:00.811Z,1004.65
2017-06-11T06:54:10.854Z,1004.63
2017-06-11T06:55:21.211Z,1004.62
2017-06-11T06:56:31.582Z,1004.59
2017-06-11T06:57:41.943Z,1004.61
2017-06-11T06:58:51.682Z,1004.58
2017-06-11T07:00:02.043Z,1004.56
2017-06-11T07:01:12.411Z,1004.57
2017-06-11T07:02:22.765Z,1004.55
2017-06-11T07:03:33.183Z,1004.52
2017-06-11T07:04:43.537Z,1004.53
2017-06-11T07:05:53.906Z,1004.52
2017-06-11T07:07:03.937Z,1004.47
2017-06-11T07:08:14.293Z,1004.49
2017-06-11T07:09:24.332Z,1004.5
2017-06-11T07:10:34.690Z,1004.48
2017-06-11T07:11:45.050Z,1004.43
2017-06-11T07:12:55.110Z,1004.39
2017-06-11T07:14:05.455Z,1004.36
2017-06-11T07:15:15.541Z,1004.37
2017-06-11T07:16:25.573Z,1004.37
2017-06-11T07:17:35.919Z,1004.34
2017-06-11T07:18:46.280Z,1004.38
2017-06-11T07:19:56.318Z,1004.41
2017-06-11T07:21:06.043Z,1004.39
2017-06-11T07:22:16.408Z,1004.37
2017-06-11T07:23:26.457Z,1004.39
2017-06-11T07:24:36.800Z,1004.36
2017-06-11T07:25:47.149Z,1004.38
2017-06-11T07:26:57.541Z,1004.32
2017-06-11T07:28:07.909Z,1004.35
2017-06-11T07:29:18.256Z,1004.32
2017-06-11T07:30:28.308Z,1004.32
2017-06-11T07:31:38.730Z,1004.31
2017-06-11T07:32:49.140Z,1004.35
2017-06-11T07:33:59.528Z,1004.29
2017-06-11T07:35:09.572Z,1004.28
2017-06-11T07:36:19.948Z,1004.3
2017-06-11T07:37:30.311Z,1004.31
2017-06-11T07:38:40.726Z,1004.3
2017-06-11T07:39:51.072Z,1004.29
2017-06-11T07:41:00.805Z,1004.31
2017-06-11T07:42:11.162Z,1004.22
2017-06-11T07:43:21.517Z,1004.27
2017-06-11T07:44:31.561Z,1004.25
2017-06-11T07:45:41.930Z,1004.21
2017-06-11T07:46:52.295Z,1004.21
2017-06-11T07:48:02.343Z,1004.23
2017-06-11T07:49:12.376Z,1004.19
2017-06-11T07:50:22.585Z,1004.22
2017-06-11T07:51:32.958Z,1004.17
2017-06-11T07:52:43.307Z,1004.2
2017-06-11T07:53:53.354Z,1004.25
2017-06-11T07:55:03.705Z,1004.18
2017-06-11T07:56:14.062Z,1004.2
2017-06-11T07:57:24.412Z,1004.14
2017-06-11T07:58:34.761Z,1004.15
2017-06-11T07:59:44.801Z,1004.13
2017-06-11T08:00:54.835Z,1004.12
2017-06-11T08:02:04.923Z,1004.13
2017-06-11T08:03:14.977Z,1004.13
2017-06-11T08:04:25.329Z,1004.14
2017-06-11T08:05:35.700Z,1004.14
2017-06-11T08:06:46.047Z,1004.16
2017-06-11T08:07:56.445Z,1004.17
2017-06-11T08:09:06.481Z,1004.16
2017-06-11T08:10:16.543Z,1004.1
2017-06-11T08:11:26.888Z,1004.13
2017-06-11T08:12:37.243Z,1004.16
2017-06-11T08:13:47.353Z,1004.12
2017-06-11T08:14:57.402Z,1004.14
2017-06-11T08:16:07.760Z,1004.18
2017-06-11T08:17:18.099Z,1004.21
2017-06-11T08:18:28.441Z,1004.23
2017-06-11T08:19:38.845Z,1004.24
2017-06-11T08:20:49.204Z,1004.19
2017-06-11T08:21:59.574Z,1004.23
2017-06-11T08:23:09.939Z,1004.18
2017-06-11T08:24:19.979Z,1004.18
2017-06-11T08:25:29.450Z,1004.22
2017-06-11T08:26:39.827Z,1004.21
2017-06-11T08:27:49.859Z,1004.18
2017-06-11T08:29:00.218Z,1004.19
2017-06-11T08:30:10.584Z,1004.19
2017-06-11T08:31:20.690Z,1004.17
2017-06-11T08:32:31.058Z,1004.08
2017-06-11T08:33:41.421Z,1004.21
2017-06-11T08:34:51.809Z,1004.2
2017-06-11T08:36:02.173Z,1004.16
2017-06-11T08:37:12.597Z,1004.16
2017-06-11T08:38:22.965Z,1004.18
2017-06-11T08:39:32.691Z,1004.17
2017-06-11T08:40:43.064Z,1004.12
2017-06-11T08:41:53.411Z,1004.13
2017-06-11T08:43:03.500Z,1004.11
2017-06-11T08:44:13.867Z,1004.15
2017-06-11T08:45:23.596Z,1004.15
2017-06-11T08:46:33.959Z,1004.1
2017-06-11T08:47:44.014Z,1004.03
2017-06-11T08:48:54.443Z,1003.98
2017-06-11T08:50:04.814Z,1003.98
2017-06-11T08:51:15.167Z,1003.99
2017-06-11T08:52:25.554Z,1004.04
2017-06-11T08:53:35.919Z,1003.93
2017-06-11T08:54:46.354Z,1004
2017-06-11T08:55:56.709Z,1004.02
2017-06-11T08:57:07.063Z,1004.01
2017-06-11T08:58:17.521Z,1003.99
2017-06-11T08:59:27.571Z,1004.03
2017-06-11T09:00:37.949Z,1003.99
2017-06-11T09:01:48.320Z,1003.96
2017-06-11T09:02:58.683Z,1003.95
2017-06-11T09:04:08.731Z,1003.99
2017-06-11T09:05:19.100Z,1003.96
2017-06-11T09:06:29.489Z,1003.96
2017-06-11T09:07:39.558Z,1004.02
2017-06-11T09:08:49.625Z,1004.02
2017-06-11T09:09:59.999Z,1003.97
2017-06-11T09:11:10.046Z,1003.99
2017-06-11T09:12:20.553Z,1003.88
2017-06-11T09:13:30.942Z,1003.92
2017-06-11T09:14:41.307Z,1003.98
2017-06-11T09:15:51.049Z,1003.94
2017-06-11T09:17:01.413Z,1003.98
2017-06-11T09:18:11.812Z,1003.94
2017-06-11T09:19:21.886Z,1003.91
2017-06-11T09:20:31.933Z,1003.93
2017-06-11T09:21:42.296Z,1003.94
2017-06-11T09:22:52.642Z,1003.95
2017-06-11T09:24:03.049Z,1003.93
2017-06-11T09:25:13.407Z,1003.87
2017-06-11T09:26:23.449Z,1003.86
2017-06-11T09:27:33.815Z,1003.85
2017-06-11T09:28:44.181Z,1003.88
2017-06-11T09:29:54.848Z,1003.9
2017-06-11T09:31:04.882Z,1003.88
2017-06-11T09:32:15.234Z,1003.85
2017-06-11T09:33:25.632Z,1003.86
2017-06-11T09:34:36.020Z,1003.82
2017-06-11T09:35:46.428Z,1003.87
2017-06-11T09:36:56.478Z,1003.83
2017-06-11T09:38:06.523Z,1003.86
2017-06-11T09:39:16.878Z,1003.82
2017-06-11T09:40:27.235Z,1003.79
2017-06-11T09:41:37.286Z,1003.76
2017-06-11T09:42:47.641Z,1003.7
2017-06-11T09:43:58.015Z,1003.71
2017-06-11T09:45:08.372Z,1003.79
2017-06-11T09:46:18.743Z,1003.75
2017-06-11T09:47:29.157Z,1003.77
2017-06-11T09:48:39.505Z,1003.75
2017-06-11T09:49:49.233Z,1003.68
2017-06-11T09:50:59.299Z,1003.62
2017-06-11T09:52:09.339Z,1003.7
2017-06-11T09:53:19.439Z,1003.69
2017-06-11T09:54:29.796Z,1003.69
2017-06-11T09:55:39.855Z,1003.79
2017-06-11T09:56:49.888Z,1003.79
2017-06-11T09:58:00.241Z,1003.77
2017-06-11T09:59:10.660Z,1003.69
2017-06-11T10:00:20.719Z,1003.65
2017-06-11T10:01:30.765Z,1003.63
2017-06-11T10:02:41.128Z,1003.63
2017-06-11T10:03:51.489Z,1003.61
2017-06-11T10:05:01.284Z,1003.64
2017-06-11T10:06:11.016Z,1003.59
2017-06-11T10:07:21.381Z,1003.62
2017-06-11T10:08:31.432Z,1003.64
2017-06-11T10:09:41.788Z,1003.62
2017-06-11T10:12:17.154Z,1003.59
2017-06-11T10:13:27.507Z,1003.62
2017-06-11T10:14:37.556Z,1003.62
2017-06-11T10:15:47.906Z,1003.6
2017-06-11T10:16:58.269Z,1003.55
2017-06-11T10:18:08.653Z,1003.52
2017-06-11T10:19:19.022Z,1003.52
2017-06-11T10:20:29.074Z,1003.5
2017-06-11T10:21:39.162Z,1003.52
2017-06-11T10:22:49.565Z,1003.61
2017-06-11T10:23:59.931Z,1003.54
2017-06-11T10:25:10.298Z,1003.54
2017-06-11T10:26:20.668Z,1003.51
2017-06-11T10:27:31.032Z,1003.52
2017-06-11T10:28:41.396Z,1003.54
2017-06-11T10:29:51.125Z,1003.55
2017-06-11T10:31:00.866Z,1003.56
2017-06-11T10:32:11.249Z,1003.5
2017-06-11T10:33:21.619Z,1003.52
2017-06-11T10:34:31.968Z,1003.59
2017-06-11T10:35:42.334Z,1003.57
2017-06-11T10:36:52.715Z,1003.49
2017-06-11T10:38:03.070Z,1003.5
2017-06-11T10:39:13.434Z,1003.47
2017-06-11T10:40:23.538Z,1003.42
2017-06-11T10:41:33.910Z,1003.37
2017-06-11T10:42:44.267Z,1003.36
2017-06-11T10:43:54.636Z,1003.3
2017-06-11T10:45:04.378Z,1003.26
2017-06-11T10:46:14.477Z,1003.26
2017-06-11T10:47:24.824Z,1003.33
2017-06-11T10:48:34.913Z,1003.25
2017-06-11T10:49:44.982Z,1003.29
2017-06-11T10:50:55.345Z,1003.28
2017-06-11T10:52:05.756Z,1003.24
2017-06-11T10:53:16.104Z,1003.2
2017-06-11T10:54:26.148Z,1003.26
2017-06-11T10:55:36.551Z,1003.22
2017-06-11T10:56:46.613Z,1003.26
2017-06-11T10:57:57.037Z,1003.24
2017-06-11T10:59:07.435Z,1003.23
2017-06-11T11:00:17.800Z,1003.19
2017-06-11T11:01:28.173Z,1003.17
2017-06-11T11:02:38.532Z,1003.16
2017-06-11T11:03:48.954Z,1003.15
2017-06-11T11:04:59.011Z,1003.13
2017-06-11T11:06:09.378Z,1003.16
2017-06-11T11:07:19.738Z,1003.15
2017-06-11T11:08:30.104Z,1003.23
2017-06-11T11:09:40.145Z,1003.15
2017-06-11T11:10:50.206Z,1003.11
2017-06-11T11:12:00.269Z,1003.02
2017-06-11T11:13:10.027Z,1003.08
2017-06-11T11:14:20.376Z,1003.11
2017-06-11T11:15:30.480Z,1003.09
2017-06-11T11:16:40.843Z,1003.03
2017-06-11T11:17:51.214Z,1003.02
2017-06-11T11:19:01.281Z,1002.97
2017-06-11T11:20:11.631Z,1002.94
2017-06-11T11:21:22.049Z,1002.98
2017-06-11T11:22:32.404Z,1002.92
2017-06-11T11:23:42.463Z,1002.9
2017-06-11T11:24:52.144Z,1002.89
2017-06-11T11:26:02.534Z,1002.92
2017-06-11T11:27:12.613Z,1002.87
2017-06-11T11:28:22.029Z,1002.9
2017-06-11T11:29:32.393Z,1002.88
2017-06-11T11:30:42.422Z,1002.9
2017-06-11T11:31:52.782Z,1002.87
2017-06-11T11:33:02.900Z,1002.83
2017-06-11T11:34:12.973Z,1002.82
2017-06-11T11:35:23.342Z,1002.76
2017-06-11T11:36:33.410Z,1002.75
2017-06-11T11:37:43.154Z,1002.7
2017-06-11T11:38:53.249Z,1002.73
2017-06-11T11:40:03.302Z,1002.69
2017-06-11T11:41:13.672Z,1002.78
2017-06-11T11:42:23.694Z,1002.7
2017-06-11T11:43:34.116Z,1002.71
2017-06-11T11:44:44.210Z,1002.64
2017-06-11T11:45:54.583Z,1002.68
2017-06-11T11:47:04.646Z,1002.63
2017-06-11T11:48:15.007Z,1002.64
2017-06-11T11:49:25.365Z,1002.64
2017-06-11T11:50:35.765Z,1002.61
2017-06-11T11:51:46.109Z,1002.58
2017-06-11T11:52:56.150Z,1002.54
2017-06-11T11:54:06.499Z,1002.53
2017-06-11T11:55:16.558Z,1002.5
2017-06-11T11:56:26.597Z,1002.49
2017-06-11T11:57:36.650Z,1002.46
2017-06-11T11:58:46.715Z,1002.49
2017-06-11T11:59:57.065Z,1002.5
2017-06-11T12:01:07.426Z,1002.48
2017-06-11T12:02:17.518Z,1002.41
2017-06-11T12:03:27.872Z,1002.43
2017-06-11T12:04:38.217Z,1002.45
2017-06-11T12:05:48.579Z,1002.35
2017-06-11T12:06:58.933Z,1002.33
2017-06-11T12:08:09.023Z,1002.34
2017-06-11T12:09:19.370Z,1002.36
2017-06-11T12:10:29.108Z,1002.36
2017-06-11T12:11:39.523Z,1002.31
2017-06-11T12:12:49.888Z,1002.35
2017-06-11T12:13:59.980Z,1002.31
2017-06-11T12:15:10.342Z,1002.35
2017-06-11T12:16:20.067Z,1002.32
2017-06-11T12:17:30.117Z,1002.29
2017-06-11T12:18:40.148Z,1002.28
2017-06-11T12:19:50.567Z,1002.28
2017-06-11T12:21:00.613Z,1002.27
2017-06-11T12:22:10.976Z,1002.3
2017-06-11T12:23:21.339Z,1002.34
2017-06-11T12:24:31.707Z,1002.29
2017-06-11T12:25:42.054Z,1002.3
2017-06-11T12:26:52.107Z,1002.25
2017-06-11T12:28:02.153Z,1002.24
2017-06-11T12:29:12.515Z,1002.2
2017-06-11T12:30:22.872Z,1002.2
2017-06-11T12:31:33.293Z,1002.22
2017-06-11T12:32:43.664Z,1002.21
2017-06-11T12:33:53.400Z,1002.22
2017-06-11T12:35:03.749Z,1002.19
2017-06-11T12:36:14.131Z,1002.12
2017-06-11T12:37:24.548Z,1002.16
2017-06-11T12:38:34.594Z,1002.18
2017-06-11T12:39:44.973Z,1002.18
2017-06-11T12:40:55.343Z,1002.14
2017-06-11T12:42:05.698Z,1002.09
2017-06-11T12:43:16.113Z,1002.1
2017-06-11T12:44:26.453Z,1002.08
2017-06-11T12:45:36.827Z,1002.07
2017-06-11T12:46:47.251Z,1002.02
2017-06-11T12:47:57.658Z,1002.04
2017-06-11T12:49:08.079Z,1002.06
2017-06-11T12:50:18.431Z,1002.01
2017-06-11T12:51:28.812Z,1002.06
2017-06-11T12:52:39.160Z,1002.05
2017-06-11T12:53:49.526Z,1002
2017-06-11T12:54:59.628Z,1002.08
2017-06-11T12:56:09.988Z,1002.05
2017-06-11T12:57:20.353Z,1002.09
2017-06-11T12:58:30.716Z,1002.03
2017-06-11T12:59:41.071Z,1002.02
2017-06-11T13:00:51.422Z,1001.97
2017-06-11T13:02:01.181Z,1001.92
2017-06-11T13:03:11.557Z,1001.93
2017-06-11T13:04:21.921Z,1001.91
2017-06-11T13:05:32.290Z,1001.94
2017-06-11T13:06:42.720Z,1001.92
2017-06-11T13:07:52.760Z,1001.94
2017-06-11T13:09:03.120Z,1001.89
2017-06-11T13:10:12.852Z,1001.85
2017-06-11T13:11:23.254Z,1001.83
2017-06-11T13:12:33.670Z,1001.79
2017-06-11T13:13:44.046Z,1001.84
2017-06-11T13:14:54.100Z,1001.88
2017-06-11T13:16:04.138Z,1001.86
2017-06-11T13:17:14.515Z,1001.86
2017-06-11T13:18:24.553Z,1001.88
2017-06-11T13:19:34.906Z,1001.88
2017-06-11T13:20:44.956Z,1001.87
2017-06-11T13:21:55.304Z,1001.86
2017-06-11T13:23:05.669Z,1001.83
2017-06-11T13:24:15.769Z,1001.82
2017-06-11T13:25:25.791Z,1001.83
2017-06-11T13:26:36.144Z,1001.79
2017-06-11T13:27:46.531Z,1001.82
2017-06-11T13:28:56.914Z,1001.83
2017-06-11T13:30:07.006Z,1001.84
2017-06-11T13:31:17.374Z,1001.83
2017-06-11T13:32:27.432Z,1001.85
2017-06-11T13:33:37.799Z,1001.84
2017-06-11T13:34:48.155Z,1001.8
2017-06-11T13:35:58.552Z,1001.78
2017-06-11T13:37:08.921Z,1001.8
2017-06-11T13:38:19.274Z,1001.79
2017-06-11T13:39:29.018Z,1001.75
2017-06-11T13:40:39.387Z,1001.79
2017-06-11T13:41:49.458Z,1001.72
2017-06-11T13:42:59.821Z,1001.66
2017-06-11T13:44:10.188Z,1001.67
2017-06-11T13:45:20.580Z,1001.68
2017-06-11T13:46:30.633Z,1001.7
2017-06-11T13:47:41.062Z,1001.71
2017-06-11T13:48:51.427Z,1001.7
2017-06-11T13:50:01.806Z,1001.68
2017-06-11T13:51:12.212Z,1001.72
2017-06-11T13:52:22.621Z,1001.59
2017-06-11T13:53:33.042Z,1001.6
2017-06-11T13:54:43.420Z,1001.61
2017-06-11T13:55:53.815Z,1001.62
2017-06-11T13:57:03.575Z,1001.57
2017-06-11T13:58:13.948Z,1001.52
2017-06-11T13:59:24.399Z,1001.6
2017-06-11T14:00:34.759Z,1001.56
2017-06-11T14:01:44.818Z,1001.54
2017-06-11T14:02:55.186Z,1001.59
2017-06-11T14:04:05.568Z,1001.61
2017-06-11T14:05:15.996Z,1001.51
2017-06-11T14:06:25.759Z,1001.52
2017-06-11T14:07:36.147Z,1001.48
2017-06-11T14:08:46.540Z,1001.51
2017-06-11T14:09:56.608Z,1001.49
2017-06-11T14:11:07.034Z,1001.49
2017-06-11T14:12:17.395Z,1001.52
2017-06-11T14:13:27.750Z,1001.49
2017-06-11T14:14:38.162Z,1001.5
2017-06-11T14:15:48.544Z,1001.46
2017-06-11T14:16:58.923Z,1001.46
2017-06-11T14:18:09.307Z,1001.44
2017-06-11T14:19:19.359Z,1001.37
2017-06-11T14:20:29.412Z,1001.38
2017-06-11T14:21:39.777Z,1001.36
2017-06-11T14:22:50.164Z,1001.31
2017-06-11T14:24:00.224Z,1001.3
2017-06-11T14:25:10.589Z,1001.26
2017-06-11T14:26:20.633Z,1001.25
2017-06-11T14:27:31.013Z,1001.24
2017-06-11T14:28:41.378Z,1001.24
2017-06-11T14:29:51.743Z,1001.19
2017-06-11T14:31:02.115Z,1001.21
2017-06-11T14:32:12.482Z,1001.15
2017-06-11T14:33:22.860Z,1001.18
2017-06-11T14:34:33.220Z,1001.09
2017-06-11T14:35:43.587Z,1001.15
2017-06-11T14:36:54.022Z,1001.08
2017-06-11T14:38:04.402Z,1001.08
2017-06-11T14:39:14.798Z,1001.07
2017-06-11T14:40:24.850Z,1001.09
2017-06-11T14:41:34.918Z,1001.09
2017-06-11T14:42:44.696Z,1001.05
2017-06-11T14:43:54.739Z,1001.03
2017-06-11T14:45:05.104Z,1001.02